createdAt,value
2019-03-26T00:00:40.663Z,99.99
2019-03-26T00:01:40.672Z,99.99
2019-03-26T00:02:40.678Z,99.99
2019-03-26T00:03:40.692Z,99.99
2019-03-26T00:04:40.707Z,99.99
2019-03-26T00:05:40.715Z,99.99
2019-03-26T00:06:40.744Z,99.99
2019-03-26T00:07:40.741Z,99.99
2019-03-26T00:08:40.766Z,99.99
2019-03-26T00:09:40.763Z,99.99
2019-03-26T00:10:40.775Z,99.99
2019-03-26T00:11:40.805Z,99.99
2019-03-26T00:12:40.798Z,99.99
2019-03-26T00:13:40.805Z,99.99
2019-03-26T00:14:40.827Z,99.99
2019-03-26T00:15:40.827Z,99.99
2019-03-26T00:16:40.851Z,99.99
2019-03-26T00:17:40.850Z,99.99
2019-03-26T00:18:40.864Z,99.99
2019-03-26T00:19:40.877Z,99.99
2019-03-26T00:20:40.890Z,99.99
2019-03-26T00:21:40.907Z,99.99
2019-03-26T00:22:40.912Z,99.99
2019-03-26T00:23:40.933Z,99.99
2019-03-26T00:24:40.944Z,99.99
2019-03-26T00:25:40.942Z,99.99
2019-03-26T00:26:40.956Z,99.99
2019-03-26T00:27:40.966Z,99.99
2019-03-26T00:28:40.980Z,99.99
2019-03-26T00:29:41.005Z,99.99
2019-03-26T00:30:41.018Z,99.99
2019-03-26T00:31:41.025Z,99.99
2019-03-26T00:32:41.027Z,99.99
2019-03-26T00:33:41.034Z,99.99
2019-03-26T00:34:41.046Z,99.99
2019-03-26T00:35:41.058Z,99.99
2019-03-26T00:36:41.071Z,99.99
2019-03-26T00:37:41.079Z,99.99
2019-03-26T00:38:41.108Z,99.99
2019-03-26T00:39:41.105Z,99.99
2019-03-26T00:40:41.124Z,99.99
2019-03-26T00:41:41.132Z,99.99
2019-03-26T00:42:41.142Z,99.99
2019-03-26T00:43:41.159Z,99.99
2019-03-26T00:44:41.174Z,99.99
2019-03-26T00:45:41.173Z,99.99
2019-03-26T00:46:41.187Z,99.99
2019-03-26T00:47:41.199Z,99.99
2019-03-26T00:48:41.216Z,99.99
2019-03-26T00:49:41.322Z,99.99
2019-03-26T00:50:41.231Z,99.99
2019-03-26T00:51:41.245Z,99.99
2019-03-26T00:52:41.263Z,99.99
2019-03-26T00:53:41.266Z,99.99
2019-03-26T00:54:41.289Z,99.99
2019-03-26T00:55:41.372Z,99.99
2019-03-26T00:56:41.315Z,99.99
2019-03-26T00:57:41.321Z,99.99
2019-03-26T00:58:41.333Z,99.99
2019-03-26T00:59:41.339Z,99.99
2019-03-26T01:00:41.701Z,99.99
2019-03-26T01:01:41.791Z,99.99
2019-03-26T01:02:41.376Z,99.99
2019-03-26T01:03:41.384Z,99.99
2019-03-26T01:04:41.396Z,99.99
2019-03-26T01:05:41.413Z,99.99
2019-03-26T01:06:41.438Z,99.99
2019-03-26T01:07:41.440Z,99.99
2019-03-26T01:08:41.443Z,99.99
2019-03-26T01:09:41.452Z,99.99
2019-03-26T01:10:41.471Z,99.99
2019-03-26T01:11:41.477Z,99.99
2019-03-26T01:12:41.498Z,99.99
2019-03-26T01:13:41.500Z,99.99
2019-03-26T01:14:41.510Z,99.99
2019-03-26T01:15:41.530Z,99.99
2019-03-26T01:16:41.536Z,99.99
2019-03-26T01:17:41.557Z,99.99
2019-03-26T01:18:41.572Z,99.99
2019-03-26T01:19:41.576Z,99.99
2019-03-26T01:20:41.585Z,99.99
2019-03-26T01:21:41.589Z,99.99
2019-03-26T01:22:41.613Z,99.99
2019-03-26T01:23:41.615Z,99.99
2019-03-26T01:24:41.626Z,99.99
2019-03-26T01:25:41.637Z,99.99
2019-03-26T01:26:41.647Z,99.99
2019-03-26T01:27:41.685Z,99.99
2019-03-26T01:28:41.673Z,99.99
2019-03-26T01:29:41.679Z,99.99
2019-03-26T01:30:41.695Z,99.99
2019-03-26T01:31:41.706Z,99.99
2019-03-26T01:32:41.719Z,99.99
2019-03-26T01:33:41.733Z,99.99
2019-03-26T01:34:46.188Z,99.99
2019-03-26T01:35:41.753Z,99.99
2019-03-26T01:36:41.765Z,99.99
2019-03-26T01:37:41.773Z,99.99
2019-03-26T01:38:41.790Z,99.99
2019-03-26T01:39:41.803Z,99.99
2019-03-26T01:40:41.816Z,99.99
2019-03-26T01:41:41.818Z,99.99
2019-03-26T01:42:41.834Z,99.99
2019-03-26T01:43:41.850Z,99.99
2019-03-26T01:44:41.859Z,99.99
2019-03-26T01:45:41.944Z,99.99
2019-03-26T01:46:41.897Z,99.99
2019-03-26T01:47:41.888Z,99.99
2019-03-26T01:48:41.900Z,99.99
2019-03-26T01:49:41.910Z,99.99
2019-03-26T01:50:41.944Z,99.99
2019-03-26T01:51:41.944Z,99.99
2019-03-26T01:52:41.953Z,99.99
2019-03-26T01:53:41.961Z,99.99
2019-03-26T01:54:41.967Z,99.99
2019-03-26T01:55:42.020Z,99.99
2019-03-26T01:56:41.999Z,99.99
2019-03-26T01:57:42.004Z,99.99
2019-03-26T01:58:42.013Z,99.99
2019-03-26T01:59:42.033Z,99.99
2019-03-26T02:00:42.034Z,99.99
2019-03-26T02:01:42.048Z,99.99
2019-03-26T02:02:42.058Z,99.99
2019-03-26T02:03:42.073Z,99.99
2019-03-26T02:04:42.082Z,99.99
2019-03-26T02:05:42.095Z,99.99
2019-03-26T02:06:42.109Z,99.99
2019-03-26T02:07:42.140Z,99.99
2019-03-26T02:08:42.132Z,99.99
2019-03-26T02:09:42.144Z,99.99
2019-03-26T02:10:42.157Z,99.99
2019-03-26T02:11:42.174Z,99.99
2019-03-26T02:12:42.174Z,99.99
2019-03-26T02:13:42.195Z,99.99
2019-03-26T02:14:42.203Z,99.99
2019-03-26T02:15:42.214Z,99.99
2019-03-26T02:16:42.217Z,99.99
2019-03-26T02:17:42.228Z,99.99
2019-03-26T02:18:42.245Z,99.99
2019-03-26T02:19:42.256Z,99.99
2019-03-26T02:20:42.264Z,99.99
2019-03-26T02:21:42.279Z,99.99
2019-03-26T02:22:42.341Z,99.99
2019-03-26T02:23:42.299Z,99.99
2019-03-26T02:24:42.311Z,99.99
2019-03-26T02:25:42.320Z,99.99
2019-03-26T02:26:42.338Z,99.99
2019-03-26T02:27:42.349Z,99.99
2019-03-26T02:28:42.356Z,99.99
2019-03-26T02:29:42.371Z,99.99
2019-03-26T02:30:42.380Z,99.99
2019-03-26T02:31:42.392Z,99.99
2019-03-26T02:32:42.409Z,99.99
2019-03-26T02:33:42.413Z,99.99
2019-03-26T02:34:42.424Z,99.99
2019-03-26T02:35:42.435Z,99.99
2019-03-26T02:36:42.675Z,99.99
2019-03-26T02:37:42.464Z,99.99
2019-03-26T02:38:42.467Z,99.99
2019-03-26T02:39:42.479Z,99.99
2019-03-26T02:40:42.489Z,99.99
2019-03-26T02:41:42.509Z,99.99
2019-03-26T02:42:42.512Z,99.99
2019-03-26T02:43:42.524Z,99.99
2019-03-26T02:44:42.539Z,99.99
2019-03-26T02:45:42.550Z,99.99
2019-03-26T02:46:42.561Z,99.99
2019-03-26T02:47:42.571Z,99.99
2019-03-26T02:48:42.602Z,99.99
2019-03-26T02:49:42.593Z,99.99
2019-03-26T02:50:42.610Z,99.99
2019-03-26T02:51:42.630Z,99.99
2019-03-26T02:52:42.626Z,99.99
2019-03-26T02:53:42.638Z,99.99
2019-03-26T02:54:42.650Z,99.99
2019-03-26T02:55:42.658Z,99.99
2019-03-26T02:56:42.679Z,99.99
2019-03-26T02:57:42.691Z,99.99
2019-03-26T02:58:42.695Z,99.99
2019-03-26T02:59:42.707Z,99.99
2019-03-26T03:00:42.717Z,99.99
2019-03-26T03:01:42.728Z,99.99
2019-03-26T03:02:42.740Z,99.99
2019-03-26T03:03:42.759Z,99.99
2019-03-26T03:04:42.767Z,99.99
2019-03-26T03:05:42.871Z,99.99
2019-03-26T03:06:42.791Z,99.99
2019-03-26T03:07:42.796Z,99.99
2019-03-26T03:08:42.846Z,99.99
2019-03-26T03:09:42.825Z,99.99
2019-03-26T03:10:42.832Z,99.99
2019-03-26T03:11:42.847Z,99.99
2019-03-26T03:12:42.865Z,99.99
2019-03-26T03:13:42.868Z,99.99
2019-03-26T03:14:42.880Z,99.99
2019-03-26T03:15:42.904Z,99.99
2019-03-26T03:16:42.899Z,99.99
2019-03-26T03:17:42.909Z,99.99
2019-03-26T03:18:42.923Z,99.99
2019-03-26T03:19:42.933Z,99.99
2019-03-26T03:20:42.950Z,99.99
2019-03-26T03:21:42.953Z,99.99
2019-03-26T03:22:42.967Z,99.99
2019-03-26T03:23:42.986Z,99.99
2019-03-26T03:24:42.990Z,99.99
2019-03-26T03:25:43.005Z,99.99
2019-03-26T03:26:43.012Z,99.99
2019-03-26T03:27:43.033Z,99.99
2019-03-26T03:28:43.053Z,99.99
2019-03-26T03:29:43.052Z,99.99
2019-03-26T03:30:43.058Z,99.99
2019-03-26T03:31:43.070Z,99.99
2019-03-26T03:32:43.094Z,99.99
2019-03-26T03:33:43.092Z,99.99
2019-03-26T03:34:43.118Z,99.99
2019-03-26T03:35:52.119Z,99.99
2019-03-26T03:36:43.129Z,99.99
2019-03-26T03:37:43.190Z,99.99
2019-03-26T03:38:43.280Z,99.99
2019-03-26T03:39:43.871Z,99.99
2019-03-26T03:40:43.185Z,99.99
2019-03-26T03:41:43.185Z,99.99
2019-03-26T03:42:43.196Z,99.99
2019-03-26T03:43:43.211Z,99.99
2019-03-26T03:44:43.221Z,99.99
2019-03-26T03:45:43.235Z,99.99
2019-03-26T03:46:43.242Z,99.99
2019-03-26T03:47:43.259Z,99.99
2019-03-26T03:48:43.277Z,99.99
2019-03-26T03:49:43.281Z,99.99
2019-03-26T03:50:43.293Z,99.99
2019-03-26T03:51:43.306Z,99.99
2019-03-26T03:52:43.312Z,99.99
2019-03-26T03:53:43.322Z,99.99
2019-03-26T03:54:43.337Z,99.99
2019-03-26T03:55:43.349Z,99.99
2019-03-26T03:56:43.359Z,99.99
2019-03-26T03:57:43.368Z,99.99
2019-03-26T03:58:43.386Z,99.99
2019-03-26T03:59:43.398Z,99.99
2019-03-26T04:00:43.464Z,99.99
2019-03-26T04:01:43.420Z,99.99
2019-03-26T04:02:43.478Z,99.99
2019-03-26T04:03:43.438Z,99.99
2019-03-26T04:04:43.454Z,99.99
2019-03-26T04:05:43.463Z,99.99
2019-03-26T04:06:43.481Z,99.99
2019-03-26T04:07:43.502Z,99.99
2019-03-26T04:08:43.611Z,99.99
2019-03-26T04:09:43.632Z,99.99
2019-03-26T04:10:43.943Z,99.99
2019-03-26T04:11:43.538Z,99.99
2019-03-26T04:12:44.343Z,99.99
2019-03-26T04:13:43.612Z,99.99
2019-03-26T04:14:43.562Z,99.99
2019-03-26T04:15:43.584Z,99.99
2019-03-26T04:16:43.587Z,99.99
2019-03-26T04:17:43.598Z,99.99
2019-03-26T04:18:43.610Z,99.99
2019-03-26T04:19:43.619Z,99.99
2019-03-26T04:20:43.638Z,99.99
2019-03-26T04:21:43.654Z,99.99
2019-03-26T04:22:43.660Z,99.99
2019-03-26T04:23:43.676Z,99.99
2019-03-26T04:24:43.684Z,99.99
2019-03-26T04:25:43.704Z,99.99
2019-03-26T04:26:43.712Z,99.99
2019-03-26T04:27:43.720Z,99.99
2019-03-26T04:28:43.728Z,99.99
2019-03-26T04:29:43.742Z,99.99
2019-03-26T04:30:43.748Z,99.99
2019-03-26T04:31:43.761Z,99.99
2019-03-26T04:32:43.775Z,99.99
2019-03-26T04:33:43.781Z,99.99
2019-03-26T04:34:43.796Z,99.99
2019-03-26T04:35:43.808Z,99.99
2019-03-26T04:36:43.821Z,99.99
2019-03-26T04:37:43.826Z,99.99
2019-03-26T04:38:43.844Z,99.99
2019-03-26T04:39:43.895Z,99.99
2019-03-26T04:40:43.916Z,99.99
2019-03-26T04:41:44.099Z,99.99
2019-03-26T04:42:44.487Z,99.99
2019-03-26T04:43:43.901Z,99.99
2019-03-26T04:44:43.908Z,99.99
2019-03-26T04:45:43.915Z,99.99
2019-03-26T04:46:43.932Z,99.21
2019-03-26T04:47:43.945Z,98.07
2019-03-26T04:48:43.966Z,96.83
2019-03-26T04:49:43.962Z,96.93
2019-03-26T04:50:43.980Z,96.26
2019-03-26T04:51:43.996Z,94.74
2019-03-26T04:52:43.998Z,95.41
2019-03-26T04:53:44.010Z,95.98
2019-03-26T04:54:44.028Z,95.89
2019-03-26T04:55:44.038Z,95.31
2019-03-26T04:56:44.046Z,95.41
2019-03-26T04:57:44.064Z,94.08
2019-03-26T04:58:44.148Z,94.08
2019-03-26T04:59:44.083Z,93.89
2019-03-26T05:00:44.091Z,94.27
2019-03-26T05:01:44.102Z,94.18
2019-03-26T05:02:44.114Z,94.18
2019-03-26T05:03:44.126Z,94.37
2019-03-26T05:04:44.136Z,94.03
2019-03-26T05:05:44.167Z,94.32
2019-03-26T05:06:44.157Z,93.84
2019-03-26T05:07:44.184Z,93.32
2019-03-26T05:08:44.184Z,93.13
2019-03-26T05:09:44.191Z,92.56
2019-03-26T05:10:44.207Z,92.18
2019-03-26T05:11:44.233Z,92.18
2019-03-26T05:12:44.252Z,91.61
2019-03-26T05:13:44.236Z,90.85
2019-03-26T05:14:44.266Z,91.04
2019-03-26T05:15:44.371Z,90.66
2019-03-26T05:16:44.281Z,90.66
2019-03-26T05:17:44.284Z,89.81
2019-03-26T05:18:44.294Z,90.23
2019-03-26T05:19:44.310Z,90.42
2019-03-26T05:20:44.315Z,89.76
2019-03-26T05:21:44.329Z,89.67
2019-03-26T05:22:44.340Z,89.47
2019-03-26T05:23:44.356Z,89.57
2019-03-26T05:24:44.385Z,89.38
2019-03-26T05:25:44.374Z,89.76
2019-03-26T05:27:45.747Z,90.42
2019-03-26T05:28:44.415Z,90.05
2019-03-26T05:29:44.416Z,91.09
2019-03-26T05:30:44.430Z,90.05
2019-03-26T05:31:44.442Z,90.05
2019-03-26T05:32:44.449Z,91.09
2019-03-26T05:33:44.467Z,90.99
2019-03-26T05:34:44.473Z,91.19
2019-03-26T05:35:44.481Z,91.19
2019-03-26T05:36:51.297Z,91.47
2019-03-26T05:37:44.515Z,91.75
2019-03-26T05:38:44.527Z,91.75
2019-03-26T05:39:44.529Z,91.66
2019-03-26T05:40:44.619Z,92.04
2019-03-26T05:41:44.560Z,92.13
2019-03-26T05:42:44.577Z,92.42
2019-03-26T05:43:44.650Z,91.94
2019-03-26T05:44:44.589Z,91.94
2019-03-26T05:45:44.607Z,91.47
2019-03-26T05:46:44.610Z,92.04
2019-03-26T05:47:44.632Z,92.80
2019-03-26T05:48:44.631Z,92.61
2019-03-26T05:49:44.746Z,91.47
2019-03-26T05:50:44.655Z,90.90
2019-03-26T05:51:44.764Z,90.71
2019-03-26T05:52:44.723Z,90.90
2019-03-26T05:53:44.695Z,90.99
2019-03-26T05:54:44.706Z,89.95
2019-03-26T05:55:44.717Z,90.71
2019-03-26T05:56:44.740Z,91.56
2019-03-26T05:57:44.737Z,91.38
2019-03-26T05:58:44.753Z,92.13
2019-03-26T05:59:44.758Z,92.32
2019-03-26T06:00:45.111Z,92.23
2019-03-26T06:01:44.778Z,91.56
2019-03-26T06:02:44.798Z,91.85
2019-03-26T06:03:44.799Z,92.61
2019-03-26T06:04:44.819Z,92.23
2019-03-26T06:05:44.844Z,91.47
2019-03-26T06:06:44.840Z,92.23
2019-03-26T06:07:44.849Z,92.61
2019-03-26T06:08:44.861Z,92.71
2019-03-26T06:09:44.876Z,93.18
2019-03-26T06:10:44.995Z,93.18
2019-03-26T06:11:44.898Z,92.90
2019-03-26T06:12:44.904Z,92.99
2019-03-26T06:13:44.911Z,92.61
2019-03-26T06:14:44.927Z,92.51
2019-03-26T06:15:44.951Z,92.80
2019-03-26T06:16:44.949Z,92.80
2019-03-26T06:17:44.959Z,92.51
2019-03-26T06:18:44.971Z,93.08
2019-03-26T06:19:44.986Z,92.80
2019-03-26T06:20:45.295Z,92.90
2019-03-26T06:21:45.008Z,92.61
2019-03-26T06:22:45.020Z,92.51
2019-03-26T06:24:45.880Z,92.13
2019-03-26T06:25:45.637Z,92.99
2019-03-26T06:26:45.062Z,93.08
2019-03-26T06:27:45.073Z,92.71
2019-03-26T06:28:45.081Z,93.08
2019-03-26T06:29:45.123Z,93.46
2019-03-26T06:30:45.124Z,92.32
2019-03-26T06:31:45.120Z,92.04
2019-03-26T06:32:45.132Z,91.85
2019-03-26T06:33:45.143Z,91.94
2019-03-26T06:34:45.155Z,91.56
2019-03-26T06:35:45.163Z,91.09
2019-03-26T06:36:45.225Z,91.38
2019-03-26T06:37:45.196Z,90.90
2019-03-26T06:38:46.367Z,90.90
2019-03-26T06:39:45.217Z,90.80
2019-03-26T06:40:45.221Z,90.71
2019-03-26T06:41:45.235Z,90.23
2019-03-26T06:42:45.254Z,90.42
2019-03-26T06:43:45.257Z,90.42
2019-03-26T06:44:45.271Z,90.61
2019-03-26T06:45:45.329Z,90.23
2019-03-26T06:46:45.315Z,89.95
2019-03-26T06:47:45.331Z,90.05
2019-03-26T06:48:45.375Z,89.95
2019-03-26T06:49:45.328Z,90.90
2019-03-26T06:50:45.353Z,90.42
2019-03-26T06:51:45.461Z,89.76
2019-03-26T06:52:45.365Z,89.19
2019-03-26T06:53:45.380Z,89.61
2019-03-26T06:54:45.386Z,89.19
2019-03-26T06:55:45.403Z,90.14
2019-03-26T06:56:45.406Z,90.09
2019-03-26T06:57:45.893Z,90.37
2019-03-26T06:58:46.270Z,90.05
2019-03-26T06:59:45.437Z,89.57
2019-03-26T07:00:45.453Z,89.38
2019-03-26T07:01:45.465Z,89.57
2019-03-26T07:02:45.485Z,90.42
2019-03-26T07:03:45.488Z,90.52
2019-03-26T07:04:45.500Z,90.42
2019-03-26T07:05:45.506Z,91.28
2019-03-26T07:06:45.523Z,92.13
2019-03-26T07:07:45.538Z,91.75
2019-03-26T07:08:45.548Z,91.75
2019-03-26T07:09:45.556Z,92.13
2019-03-26T07:10:45.572Z,91.75
2019-03-26T07:11:45.576Z,91.28
2019-03-26T07:12:45.655Z,91.85
2019-03-26T07:13:45.603Z,92.42
2019-03-26T07:14:45.639Z,92.13
2019-03-26T07:15:45.625Z,92.32
2019-03-26T07:16:45.634Z,92.80
2019-03-26T07:17:45.660Z,92.42
2019-03-26T07:18:45.821Z,92.13
2019-03-26T07:19:45.694Z,92.32
2019-03-26T07:20:45.700Z,92.04
2019-03-26T07:21:49.807Z,92.61
2019-03-26T07:22:46.289Z,92.42
2019-03-26T07:23:45.773Z,91.94
2019-03-26T07:24:45.884Z,92.23
2019-03-26T07:25:45.840Z,92.61
2019-03-26T07:26:45.803Z,92.80
2019-03-26T07:27:45.897Z,92.99
2019-03-26T07:28:46.670Z,93.08
2019-03-26T07:29:46.662Z,92.85
2019-03-26T07:30:45.796Z,93.04
2019-03-26T07:31:45.806Z,92.66
2019-03-26T07:32:45.827Z,92.66
2019-03-26T07:33:45.839Z,92.37
2019-03-26T07:34:45.842Z,92.08
2019-03-26T07:35:45.856Z,92.66
2019-03-26T07:36:45.871Z,92.56
2019-03-26T07:37:45.989Z,92.18
2019-03-26T07:38:45.899Z,92.37
2019-03-26T07:39:45.914Z,91.71
2019-03-26T07:40:45.923Z,91.80
2019-03-26T07:41:45.921Z,92.85
2019-03-26T07:42:45.935Z,92.85
2019-03-26T07:43:45.941Z,92.85
2019-03-26T07:44:45.953Z,92.46
2019-03-26T07:45:45.961Z,92.66
2019-03-26T07:46:45.990Z,92.27
2019-03-26T07:47:45.988Z,92.27
2019-03-26T07:48:46.007Z,92.08
2019-03-26T07:49:46.008Z,92.27
2019-03-26T07:50:46.057Z,92.08
2019-03-26T07:51:46.278Z,92.66
2019-03-26T07:52:46.302Z,91.33
2019-03-26T07:53:46.058Z,91.52
2019-03-26T07:54:46.069Z,91.61
2019-03-26T07:55:46.206Z,91.61
2019-03-26T07:56:46.097Z,91.33
2019-03-26T07:57:46.204Z,91.80
2019-03-26T07:58:46.583Z,91.28
2019-03-26T07:59:46.424Z,90.94
2019-03-26T08:00:46.833Z,90.37
2019-03-26T08:01:46.391Z,90.28
2019-03-26T08:02:46.193Z,90.75
2019-03-26T08:03:46.175Z,90.85
2019-03-26T08:04:47.865Z,91.33
2019-03-26T08:05:46.205Z,91.28
2019-03-26T08:06:46.238Z,90.52
2019-03-26T08:07:57.811Z,90.33
2019-03-26T08:08:46.236Z,90.37
2019-03-26T08:09:46.251Z,91.04
2019-03-26T08:10:46.504Z,91.23
2019-03-26T08:11:46.269Z,91.13
2019-03-26T08:12:46.315Z,90.80
2019-03-26T08:13:46.306Z,90.61
2019-03-26T08:14:46.328Z,90.04
2019-03-26T08:15:46.340Z,89.75
2019-03-26T08:16:46.350Z,88.90
2019-03-26T08:17:46.343Z,87.85
2019-03-26T08:18:46.391Z,88.04
2019-03-26T08:19:46.366Z,88.04
2019-03-26T08:20:46.379Z,88.13
2019-03-26T08:21:46.402Z,87.76
2019-03-26T08:22:46.411Z,87.95
2019-03-26T08:23:46.439Z,88.52
2019-03-26T08:24:46.454Z,87.38
2019-03-26T08:25:46.440Z,86.71
2019-03-26T08:26:46.457Z,87.09
2019-03-26T08:27:46.466Z,86.90
2019-03-26T08:28:46.491Z,86.61
2019-03-26T08:29:46.487Z,86.24
2019-03-26T08:30:46.511Z,87.47
2019-03-26T08:31:46.521Z,87.09
2019-03-26T08:33:47.141Z,87.38
2019-03-26T08:34:46.951Z,87.38
2019-03-26T08:35:46.792Z,86.94
2019-03-26T08:36:46.590Z,86.66
2019-03-26T08:37:46.591Z,85.90
2019-03-26T08:38:46.601Z,85.90
2019-03-26T08:39:46.626Z,85.71
2019-03-26T08:40:46.626Z,85.42
2019-03-26T08:41:46.639Z,85.52
2019-03-26T08:42:46.649Z,85.52
2019-03-26T08:43:46.668Z,85.52
2019-03-26T08:44:46.686Z,85.71
2019-03-26T08:45:46.698Z,85.52
2019-03-26T08:46:46.799Z,84.85
2019-03-26T08:47:46.845Z,84.47
2019-03-26T08:48:46.738Z,84.95
2019-03-26T08:49:46.810Z,84.56
2019-03-26T08:50:46.767Z,84.95
2019-03-26T08:51:46.794Z,85.14
2019-03-26T08:52:46.836Z,85.24
2019-03-26T08:53:46.791Z,85.24
2019-03-26T08:54:46.812Z,85.61
2019-03-26T08:55:46.814Z,85.18
2019-03-26T08:56:46.886Z,84.04
2019-03-26T08:57:46.844Z,83.94
2019-03-26T08:58:46.854Z,84.23
2019-03-26T08:59:46.868Z,84.13
2019-03-26T09:00:47.418Z,84.13
2019-03-26T09:01:47.727Z,84.52
2019-03-26T09:02:46.904Z,84.00
2019-03-26T09:03:46.920Z,85.71
2019-03-26T09:04:47.502Z,85.90
2019-03-26T09:05:46.955Z,86.61
2019-03-26T09:06:46.953Z,87.04
2019-03-26T09:07:46.984Z,87.42
2019-03-26T09:08:47.033Z,88.18
2019-03-26T09:09:47.065Z,87.90
2019-03-26T09:10:52.003Z,87.52
2019-03-26T09:11:47.019Z,88.46
2019-03-26T09:12:47.035Z,87.99
2019-03-26T09:13:47.056Z,88.18
2019-03-26T09:14:47.062Z,89.66
2019-03-26T09:15:47.095Z,89.56
2019-03-26T09:16:47.979Z,89.18
2019-03-26T09:17:47.094Z,89.51
2019-03-26T09:18:47.101Z,89.66
2019-03-26T09:19:47.119Z,89.80
2019-03-26T09:20:47.141Z,89.89
2019-03-26T09:21:47.135Z,90.42
2019-03-26T09:22:47.177Z,91.61
2019-03-26T09:23:47.160Z,92.32
2019-03-26T09:24:47.176Z,92.61
2019-03-26T09:25:47.556Z,93.94
2019-03-26T09:26:47.199Z,95.65
2019-03-26T09:27:47.218Z,95.84
2019-03-26T09:28:48.022Z,95.17
2019-03-26T09:29:47.270Z,95.17
2019-03-26T09:30:47.250Z,94.79
2019-03-26T09:31:47.275Z,95.17
2019-03-26T09:32:47.288Z,94.79
2019-03-26T09:33:47.284Z,94.89
2019-03-26T09:34:47.297Z,95.65
2019-03-26T09:35:47.321Z,95.17
2019-03-26T09:36:48.037Z,95.65
2019-03-26T09:37:47.357Z,94.98
2019-03-26T09:38:47.402Z,94.42
2019-03-26T09:39:47.368Z,94.32
2019-03-26T09:40:47.382Z,94.13
2019-03-26T09:41:47.390Z,94.32
2019-03-26T09:42:47.599Z,94.89
2019-03-26T09:43:47.745Z,95.46
2019-03-26T09:44:47.546Z,96.12
2019-03-26T09:45:47.936Z,96.41
2019-03-26T09:46:47.457Z,96.50
2019-03-26T09:47:47.890Z,96.60
2019-03-26T09:48:47.469Z,96.03
2019-03-26T09:49:47.478Z,96.31
2019-03-26T09:50:47.491Z,95.65
2019-03-26T09:51:47.500Z,95.27
2019-03-26T09:52:47.522Z,94.51
2019-03-26T09:53:47.532Z,95.08
2019-03-26T09:54:47.542Z,94.89
2019-03-26T09:55:47.572Z,95.46
2019-03-26T09:56:47.577Z,95.27
2019-03-26T09:57:47.580Z,94.84
2019-03-26T09:58:47.616Z,93.98
2019-03-26T09:59:47.599Z,94.18
2019-03-26T10:00:47.837Z,93.98
2019-03-26T10:01:47.624Z,94.27
2019-03-26T10:02:47.644Z,94.18
2019-03-26T10:03:47.651Z,94.56
2019-03-26T10:04:47.667Z,94.18
2019-03-26T10:05:47.683Z,94.84
2019-03-26T10:06:47.685Z,95.22
2019-03-26T10:07:47.701Z,94.93
2019-03-26T10:09:47.734Z,95.41
2019-03-26T10:10:47.745Z,95.70
2019-03-26T10:11:47.757Z,96.36
2019-03-26T10:12:48.009Z,95.46
2019-03-26T10:14:48.343Z,96.22
2019-03-26T10:15:48.587Z,96.98
2019-03-26T10:16:49.286Z,96.17
2019-03-26T10:17:48.516Z,95.98
2019-03-26T10:18:48.728Z,95.03
2019-03-26T10:19:48.664Z,94.18
2019-03-26T10:20:48.550Z,93.32
2019-03-26T10:21:48.436Z,92.94
2019-03-26T10:23:48.052Z,92.75
2019-03-26T10:24:47.920Z,93.51
2019-03-26T10:25:47.942Z,94.08
2019-03-26T10:27:47.959Z,93.79
2019-03-26T10:28:48.003Z,93.32
2019-03-26T10:29:47.979Z,92.75
2019-03-26T10:30:47.980Z,92.89
2019-03-26T10:31:48.006Z,93.04
2019-03-26T10:32:48.141Z,92.70
2019-03-26T10:33:48.018Z,92.41
2019-03-26T10:34:48.033Z,92.60
2019-03-26T10:35:48.071Z,92.51
2019-03-26T10:36:48.058Z,91.65
2019-03-26T10:37:48.084Z,91.17
2019-03-26T10:38:48.100Z,90.80
2019-03-26T10:39:48.106Z,90.80
2019-03-26T10:40:48.110Z,90.80
2019-03-26T10:41:48.126Z,90.22
2019-03-26T10:42:48.146Z,91.46
2019-03-26T10:43:48.329Z,91.37
2019-03-26T10:44:48.174Z,91.46
2019-03-26T10:45:48.175Z,90.89
2019-03-26T10:46:48.280Z,90.89
2019-03-26T10:47:49.296Z,90.42
2019-03-26T10:48:48.973Z,89.56
2019-03-26T10:49:48.245Z,90.89
2019-03-26T10:51:48.250Z,90.70
2019-03-26T10:52:48.264Z,90.61
2019-03-26T10:53:48.277Z,90.65
2019-03-26T10:54:48.285Z,90.17
2019-03-26T10:55:48.308Z,88.56
2019-03-26T10:56:48.323Z,87.70
2019-03-26T10:57:48.327Z,87.98
2019-03-26T10:58:49.925Z,88.08
2019-03-26T10:59:48.445Z,87.13
2019-03-26T11:00:48.369Z,86.55
2019-03-26T11:01:48.389Z,86.41
2019-03-26T11:02:48.413Z,85.84
2019-03-26T11:03:48.411Z,84.94
2019-03-26T11:04:48.427Z,85.70
2019-03-26T11:05:48.435Z,85.89
2019-03-26T11:06:48.443Z,86.08
2019-03-26T11:07:48.469Z,85.13
2019-03-26T11:08:48.586Z,85.08
2019-03-26T11:09:48.667Z,84.36
2019-03-26T11:10:48.504Z,85.60
2019-03-26T11:11:48.522Z,86.27
2019-03-26T11:12:48.636Z,86.46
2019-03-26T11:13:48.555Z,86.41
2019-03-26T11:14:48.570Z,85.41
2019-03-26T11:15:48.842Z,85.80
2019-03-26T11:16:48.583Z,85.60
2019-03-26T11:17:48.976Z,85.74
2019-03-26T11:18:49.690Z,86.08
2019-03-26T11:19:48.908Z,86.32
2019-03-26T11:21:49.657Z,84.56
2019-03-26T11:22:48.754Z,84.46
2019-03-26T11:23:48.707Z,85.03
2019-03-26T11:24:49.523Z,85.22
2019-03-26T11:26:48.727Z,86.18
2019-03-26T11:27:48.735Z,86.46
2019-03-26T11:28:48.759Z,87.65
2019-03-26T11:29:48.851Z,89.56
2019-03-26T11:30:48.818Z,90.22
2019-03-26T11:31:49.425Z,90.70
2019-03-26T11:32:48.864Z,91.65
2019-03-26T11:33:48.926Z,92.79
2019-03-26T11:34:48.832Z,92.65
2019-03-26T11:35:49.413Z,92.18
2019-03-26T11:36:48.895Z,91.89
2019-03-26T11:37:48.851Z,91.03
2019-03-26T11:38:48.863Z,91.31
2019-03-26T11:40:48.896Z,91.31
2019-03-26T11:41:48.902Z,90.94
2019-03-26T11:42:48.936Z,90.17
2019-03-26T11:43:49.413Z,89.98
2019-03-26T11:44:48.961Z,90.94
2019-03-26T11:45:48.968Z,90.84
2019-03-26T11:46:49.942Z,91.70
2019-03-26T11:47:49.004Z,91.03
2019-03-26T11:48:49.301Z,91.70
2019-03-26T11:49:49.012Z,92.79
2019-03-26T11:50:49.154Z,94.22
2019-03-26T11:51:49.468Z,96.51
2019-03-26T11:52:49.620Z,99.46
2019-03-26T11:53:49.125Z,99.27
2019-03-26T11:54:49.203Z,99.99
2019-03-26T11:55:49.297Z,99.99
2019-03-26T11:56:49.283Z,99.99
2019-03-26T11:57:49.108Z,99.99
2019-03-26T11:58:49.130Z,99.99
2019-03-26T11:59:49.140Z,99.99
2019-03-26T12:00:49.148Z,99.99
2019-03-26T12:01:52.191Z,99.99
2019-03-26T12:02:49.175Z,99.99
2019-03-26T12:03:49.184Z,99.99
2019-03-26T12:04:49.196Z,99.99
2019-03-26T12:05:49.210Z,99.99
2019-03-26T12:06:51.714Z,99.99
2019-03-26T12:07:51.120Z,99.99
2019-03-26T12:08:49.251Z,99.99
2019-03-26T12:09:49.271Z,99.99
2019-03-26T12:10:49.279Z,99.99
2019-03-26T12:11:49.641Z,99.99
2019-03-26T12:12:49.310Z,99.99
2019-03-26T12:13:49.531Z,99.99
2019-03-26T12:14:49.471Z,99.99
2019-03-26T12:15:49.369Z,99.99
2019-03-26T12:16:49.371Z,99.99
2019-03-26T12:17:49.367Z,99.99
2019-03-26T12:18:49.381Z,99.99
2019-03-26T12:19:49.386Z,99.99
2019-03-26T12:20:49.455Z,99.99
2019-03-26T12:21:51.535Z,99.99
2019-03-26T12:22:49.429Z,99.99
2019-03-26T12:23:50.078Z,99.99
2019-03-26T12:24:50.179Z,99.99
2019-03-26T12:26:49.986Z,99.99
2019-03-26T12:27:49.609Z,99.99
2019-03-26T12:28:49.509Z,99.99
2019-03-26T12:29:49.530Z,99.99
2019-03-26T12:30:49.609Z,99.99
2019-03-26T12:31:49.579Z,99.99
2019-03-26T12:32:49.559Z,99.99
2019-03-26T12:33:49.571Z,99.99
2019-03-26T12:34:49.583Z,99.99
2019-03-26T12:35:49.604Z,99.99
2019-03-26T12:36:49.623Z,99.99
2019-03-26T12:37:49.628Z,99.99
2019-03-26T12:38:49.635Z,99.99
2019-03-26T12:39:59.408Z,99.99
2019-03-26T12:40:49.663Z,99.99
2019-03-26T12:41:49.934Z,99.99
2019-03-26T12:42:49.690Z,99.99
2019-03-26T12:43:49.707Z,99.99
2019-03-26T12:44:49.735Z,99.99
2019-03-26T12:45:49.728Z,99.99
2019-03-26T12:46:49.743Z,99.99
2019-03-26T12:47:51.103Z,99.99
2019-03-26T12:48:49.782Z,99.99
2019-03-26T12:49:49.787Z,99.99
2019-03-26T12:50:49.807Z,99.99
2019-03-26T12:51:49.810Z,99.99
2019-03-26T12:52:50.184Z,99.99
2019-03-26T12:53:49.833Z,99.99
2019-03-26T12:54:49.902Z,99.99
2019-03-26T12:56:50.433Z,99.99
2019-03-26T12:57:49.890Z,99.99
2019-03-26T12:58:49.911Z,99.99
2019-03-26T12:59:49.913Z,99.99
2019-03-26T13:00:50.770Z,99.99
2019-03-26T13:01:49.939Z,99.99
2019-03-26T13:02:49.962Z,99.99
2019-03-26T13:03:49.986Z,99.99
2019-03-26T13:04:49.985Z,99.99
2019-03-26T13:05:50.094Z,99.99